createdAt,value
2019-03-28T00:00:43.951Z,67.40
2019-03-28T00:03:12.397Z,67.40
2019-03-28T00:05:40.880Z,67.10
2019-03-28T00:08:12.298Z,67.30
2019-03-28T00:10:39.442Z,67.10
2019-03-28T00:13:07.873Z,67.20
2019-03-28T00:15:36.362Z,67.00
2019-03-28T00:18:04.965Z,66.90
2019-03-28T00:20:33.419Z,66.80
2019-03-28T00:23:05.076Z,67.00
2019-03-28T00:25:33.555Z,67.10
2019-03-28T00:28:02.001Z,67.10
2019-03-28T00:30:30.416Z,67.20
2019-03-28T00:32:58.859Z,67.40
2019-03-28T00:35:27.363Z,67.50
2019-03-28T00:37:55.882Z,67.60
2019-03-28T00:40:24.446Z,67.70
2019-03-28T00:42:52.862Z,67.90
2019-03-28T00:45:21.307Z,67.80
2019-03-28T00:47:49.729Z,67.90
2019-03-28T00:50:18.186Z,67.90
2019-03-28T00:52:46.688Z,67.80
2019-03-28T00:55:15.233Z,68.00
2019-03-28T00:57:44.107Z,68.10
2019-03-28T01:00:12.895Z,68.20
2019-03-28T01:02:41.370Z,68.10
2019-03-28T01:05:10.055Z,68.40
2019-03-28T01:07:38.466Z,68.50
2019-03-28T01:10:07.242Z,69.40
2019-03-28T01:12:35.729Z,68.70
2019-03-28T01:15:07.674Z,68.90
2019-03-28T01:17:36.085Z,69.10
2019-03-28T01:20:07.335Z,69.10
2019-03-28T01:22:35.753Z,69.10
2019-03-28T01:25:04.621Z,68.90
2019-03-28T01:27:33.101Z,68.70
2019-03-28T01:30:01.542Z,68.70
2019-03-28T01:32:30.036Z,69.10
2019-03-28T01:34:58.457Z,69.30
2019-03-28T01:37:26.918Z,69.80
2019-03-28T01:39:55.399Z,69.90
2019-03-28T01:42:23.895Z,70.20
2019-03-28T01:44:52.360Z,70.20
2019-03-28T01:47:20.820Z,70.60
2019-03-28T01:49:49.306Z,70.40
2019-03-28T01:52:18.615Z,71.00
2019-03-28T01:54:47.093Z,70.80
2019-03-28T01:57:15.517Z,70.60
2019-03-28T01:59:43.945Z,70.50
2019-03-28T02:02:12.385Z,70.40
2019-03-28T02:04:40.808Z,70.40
2019-03-28T02:07:09.265Z,70.40
2019-03-28T02:09:37.684Z,70.40
2019-03-28T02:12:06.128Z,70.40
2019-03-28T02:14:34.537Z,70.30
2019-03-28T02:17:02.977Z,70.10
2019-03-28T02:19:31.631Z,70.20
2019-03-28T02:22:00.064Z,70.70
2019-03-28T02:24:28.476Z,70.80
2019-03-28T02:26:56.913Z,71.00
2019-03-28T02:29:25.334Z,71.30
2019-03-28T02:31:53.803Z,71.20
2019-03-28T02:34:22.229Z,71.20
2019-03-28T02:36:50.726Z,71.30
2019-03-28T02:39:19.162Z,71.10
2019-03-28T02:41:47.600Z,71.20
2019-03-28T02:44:16.114Z,70.90
2019-03-28T02:46:44.533Z,70.90
2019-03-28T02:49:13.038Z,71.00
2019-03-28T02:51:41.469Z,70.80
2019-03-28T02:54:09.906Z,71.10
2019-03-28T02:56:38.379Z,71.20
2019-03-28T02:59:06.818Z,71.10
2019-03-28T03:01:35.230Z,71.00
2019-03-28T03:04:03.737Z,71.30
2019-03-28T03:06:32.218Z,71.60
2019-03-28T03:09:00.673Z,71.90
2019-03-28T03:11:29.086Z,72.50
2019-03-28T03:13:57.520Z,72.90
2019-03-28T03:16:25.966Z,73.20
2019-03-28T03:18:54.403Z,73.20
2019-03-28T03:21:22.821Z,73.10
2019-03-28T03:23:51.271Z,73.10
2019-03-28T03:26:19.838Z,73.00
2019-03-28T03:28:48.306Z,73.10
2019-03-28T03:31:20.842Z,72.80
2019-03-28T03:33:46.977Z,72.60
2019-03-28T03:36:15.415Z,72.40
2019-03-28T03:38:43.838Z,72.30
2019-03-28T03:41:12.300Z,72.50
2019-03-28T03:43:40.834Z,72.90
2019-03-28T03:46:09.393Z,73.30
2019-03-28T03:48:38.673Z,73.40
2019-03-28T03:51:07.238Z,73.70
2019-03-28T03:53:35.655Z,74.00
2019-03-28T03:56:04.227Z,74.00
2019-03-28T03:58:32.641Z,74.00
2019-03-28T04:01:01.097Z,74.20
2019-03-28T04:03:29.786Z,74.30
2019-03-28T04:05:58.208Z,73.90
2019-03-28T04:08:27.163Z,73.80
2019-03-28T04:10:55.911Z,73.80
2019-03-28T04:13:24.322Z,73.60
2019-03-28T04:15:52.759Z,73.70
2019-03-28T04:18:22.270Z,73.70
2019-03-28T04:20:51.651Z,74.00
2019-03-28T04:23:20.372Z,74.50
2019-03-28T04:25:48.870Z,74.90
2019-03-28T04:28:30.736Z,75.20
2019-03-28T04:30:47.441Z,75.20
2019-03-28T04:33:15.915Z,75.20
2019-03-28T04:35:44.415Z,75.20
2019-03-28T04:38:12.943Z,75.30
2019-03-28T04:40:41.397Z,75.20
2019-03-28T04:43:09.820Z,75.00
2019-03-28T04:45:38.244Z,74.80
2019-03-28T04:48:06.714Z,74.80
2019-03-28T04:50:35.133Z,74.60
2019-03-28T04:53:03.650Z,74.90
2019-03-28T04:55:32.205Z,75.00
2019-03-28T04:58:00.644Z,75.10
2019-03-28T05:00:29.137Z,75.50
2019-03-28T05:02:57.815Z,75.80
2019-03-28T05:05:26.349Z,75.80
2019-03-28T05:07:54.785Z,75.60
2019-03-28T05:10:23.209Z,75.40
2019-03-28T05:12:51.712Z,75.40
2019-03-28T05:15:20.593Z,75.50
2019-03-28T05:17:49.126Z,76.20
2019-03-28T05:20:17.713Z,76.40
2019-03-28T05:22:46.159Z,76.60
2019-03-28T05:25:14.649Z,76.60
2019-03-28T05:27:43.157Z,76.40
2019-03-28T05:30:12.036Z,76.50
2019-03-28T05:32:40.457Z,76.50
2019-03-28T05:35:09.229Z,76.40
2019-03-28T05:37:37.670Z,76.20
2019-03-28T05:40:07.432Z,76.20
2019-03-28T05:42:35.901Z,76.10
2019-03-28T05:45:05.914Z,76.10
2019-03-28T05:47:34.365Z,76.00
2019-03-28T05:50:02.851Z,76.10
2019-03-28T05:52:31.293Z,76.00
2019-03-28T05:54:59.796Z,76.20
2019-03-28T05:57:28.208Z,76.00
2019-03-28T05:59:56.640Z,76.20
2019-03-28T06:02:25.221Z,76.80
2019-03-28T06:04:53.714Z,76.70
2019-03-28T06:07:22.170Z,76.90
2019-03-28T06:09:50.610Z,77.40
2019-03-28T06:12:19.339Z,77.90
2019-03-28T06:14:47.822Z,77.90
2019-03-28T06:17:16.250Z,77.70
2019-03-28T06:19:44.702Z,77.80
2019-03-28T06:22:13.494Z,77.90
2019-03-28T06:24:42.161Z,77.80
2019-03-28T06:27:10.603Z,78.00
2019-03-28T06:29:39.033Z,78.00
2019-03-28T06:32:07.455Z,77.90
2019-03-28T06:34:35.896Z,78.00
2019-03-28T06:37:04.309Z,77.80
2019-03-28T06:39:32.748Z,77.50
2019-03-28T06:42:01.157Z,77.00
2019-03-28T06:44:29.657Z,76.50
2019-03-28T06:46:58.119Z,76.30
2019-03-28T06:49:26.525Z,75.90
2019-03-28T06:51:54.977Z,75.90
2019-03-28T06:54:24.459Z,75.70
2019-03-28T06:56:52.936Z,75.50
2019-03-28T06:59:21.424Z,75.40
2019-03-28T07:01:49.853Z,75.20
2019-03-28T07:04:18.299Z,75.10
2019-03-28T07:06:46.744Z,74.90
2019-03-28T07:09:15.241Z,74.90
2019-03-28T07:11:43.741Z,74.70
2019-03-28T07:14:12.148Z,74.40
2019-03-28T07:16:40.584Z,74.20
2019-03-28T07:19:09.014Z,73.80
2019-03-28T07:21:37.540Z,73.60
2019-03-28T07:24:06.021Z,73.20
2019-03-28T07:26:34.483Z,73.10
2019-03-28T07:29:03.011Z,73.00
2019-03-28T07:31:31.437Z,72.80
2019-03-28T07:33:59.894Z,72.70
2019-03-28T07:36:28.333Z,72.60
2019-03-28T07:38:56.778Z,72.40
2019-03-28T07:41:25.232Z,72.40
2019-03-28T07:43:53.651Z,72.20
2019-03-28T07:46:22.073Z,72.10
2019-03-28T07:48:50.504Z,72.10
2019-03-28T07:51:18.995Z,72.10
2019-03-28T07:53:47.483Z,72.00
2019-03-28T07:56:16.099Z,71.80
2019-03-28T07:58:44.541Z,71.50
2019-03-28T08:01:12.983Z,71.40
2019-03-28T08:03:41.416Z,71.40
2019-03-28T08:06:12.597Z,71.40
2019-03-28T08:08:40.793Z,71.10
2019-03-28T08:11:10.128Z,70.70
2019-03-28T08:13:38.588Z,70.70
2019-03-28T08:16:07.069Z,70.70
2019-03-28T08:18:35.629Z,70.60
2019-03-28T08:21:04.223Z,70.50
2019-03-28T08:23:35.332Z,70.50
2019-03-28T08:26:02.922Z,70.30
2019-03-28T08:28:31.369Z,70.30
2019-03-28T08:30:59.860Z,70.20
2019-03-28T08:33:28.405Z,70.50
2019-03-28T08:35:57.917Z,70.20
2019-03-28T08:38:26.996Z,69.80
2019-03-28T08:40:55.400Z,69.50
2019-03-28T08:43:23.847Z,69.80
2019-03-28T08:45:52.253Z,70.00
2019-03-28T08:48:20.689Z,69.50
2019-03-28T08:50:49.204Z,69.20
2019-03-28T08:53:17.650Z,69.40
2019-03-28T08:55:46.150Z,69.40
2019-03-28T08:58:14.653Z,68.80
2019-03-28T09:00:51.552Z,69.30
2019-03-28T09:03:13.358Z,68.20
2019-03-28T09:05:41.868Z,68.10
2019-03-28T09:08:10.271Z,67.80
2019-03-28T09:10:38.708Z,67.30
2019-03-28T09:13:07.194Z,66.70
2019-03-28T09:15:43.441Z,66.00
2019-03-28T09:18:05.870Z,65.90
2019-03-28T09:20:34.317Z,65.90
2019-03-28T09:23:02.733Z,65.80
2019-03-28T09:25:31.180Z,65.20
2019-03-28T09:27:59.604Z,65.40
2019-03-28T09:30:47.548Z,65.40
2019-03-28T09:33:06.510Z,64.20
2019-03-28T09:35:35.131Z,64.60
2019-03-28T09:38:03.946Z,63.50
2019-03-28T09:40:32.403Z,62.70
2019-03-28T09:43:00.906Z,62.40
2019-03-28T09:45:30.181Z,61.50
2019-03-28T09:47:58.740Z,62.00
2019-03-28T09:50:27.148Z,62.30
2019-03-28T09:52:55.584Z,61.40
2019-03-28T09:55:24.018Z,61.20
2019-03-28T09:57:52.452Z,61.20
2019-03-28T10:00:21.412Z,60.20
2019-03-28T10:02:49.933Z,60.50
2019-03-28T10:05:18.349Z,59.80
2019-03-28T10:07:46.814Z,60.00
2019-03-28T10:10:15.354Z,59.90
2019-03-28T10:12:44.169Z,59.70
2019-03-28T10:15:13.056Z,59.50
2019-03-28T10:17:42.563Z,59.80
2019-03-28T10:20:11.384Z,59.00
2019-03-28T10:22:39.936Z,58.00
2019-03-28T10:25:08.692Z,57.80
2019-03-28T10:27:37.405Z,58.60
2019-03-28T10:30:08.241Z,58.20
2019-03-28T10:32:36.870Z,58.00
2019-03-28T10:35:07.084Z,57.30
2019-03-28T10:37:35.745Z,56.80
2019-03-28T10:40:06.922Z,56.20
2019-03-28T10:42:35.360Z,56.00
2019-03-28T10:45:05.842Z,55.70
2019-03-28T10:47:34.285Z,56.00
2019-03-28T10:50:04.254Z,55.10
2019-03-28T10:52:32.878Z,55.00
2019-03-28T10:55:01.361Z,55.40
2019-03-28T10:57:31.300Z,55.40
2019-03-28T10:59:59.918Z,54.80
2019-03-28T11:02:28.877Z,55.00
2019-03-28T11:04:57.630Z,54.30
2019-03-28T11:07:26.089Z,54.80
2019-03-28T11:09:54.521Z,54.20
2019-03-28T11:12:23.023Z,53.60
2019-03-28T11:14:51.532Z,52.90
2019-03-28T11:17:20.021Z,52.10
2019-03-28T11:19:48.457Z,51.40
2019-03-28T11:22:16.858Z,50.70
2019-03-28T11:24:46.472Z,51.10
2019-03-28T11:27:15.101Z,50.60
2019-03-28T11:29:43.555Z,49.60
2019-03-28T11:32:12.022Z,49.10
2019-03-28T11:34:40.890Z,48.40
2019-03-28T11:37:24.969Z,48.10
2019-03-28T11:39:40.333Z,48.50
2019-03-28T11:42:08.891Z,48.80
2019-03-28T11:44:37.442Z,47.90
2019-03-28T11:47:05.886Z,48.30
2019-03-28T11:49:34.335Z,47.70
2019-03-28T11:52:02.769Z,48.10
2019-03-28T11:54:31.176Z,47.30
2019-03-28T11:56:59.793Z,47.70
2019-03-28T11:59:28.239Z,46.80
2019-03-28T12:02:00.577Z,46.80
2019-03-28T12:04:26.898Z,47.30
2019-03-28T12:06:55.369Z,47.40
2019-03-28T12:09:23.790Z,47.60
2019-03-28T12:11:53.045Z,46.50
2019-03-28T12:14:21.642Z,47.40
2019-03-28T12:16:50.071Z,47.30
2019-03-28T12:19:18.485Z,46.90
2019-03-28T12:21:46.932Z,45.30
2019-03-28T12:24:15.345Z,46.60
2019-03-28T12:26:43.845Z,46.50
2019-03-28T12:29:12.265Z,47.20
2019-03-28T12:31:40.772Z,47.20
2019-03-28T12:34:09.200Z,46.90
2019-03-28T12:36:37.722Z,47.60
2019-03-28T12:39:06.868Z,48.30
2019-03-28T12:41:35.295Z,48.10
2019-03-28T12:44:03.805Z,48.40
2019-03-28T12:46:32.236Z,49.00
2019-03-28T12:49:00.714Z,49.30
2019-03-28T12:51:29.156Z,49.50
2019-03-28T12:53:57.577Z,49.60
2019-03-28T12:56:26.454Z,50.30
2019-03-28T12:58:54.988Z,50.40
2019-03-28T13:01:24.493Z,50.30
2019-03-28T13:03:53.043Z,50.00
2019-03-28T13:06:21.548Z,49.50
2019-03-28T13:08:49.955Z,49.70
2019-03-28T13:11:19.560Z,49.70
2019-03-28T13:13:48.113Z,49.70
2019-03-28T13:16:16.553Z,50.20
2019-03-28T13:18:44.972Z,50.30
2019-03-28T13:21:14.234Z,50.60
2019-03-28T13:23:42.827Z,50.80
2019-03-28T13:26:11.287Z,51.70
2019-03-28T13:28:39.732Z,51.30
2019-03-28T13:31:08.160Z,51.50
2019-03-28T13:33:36.641Z,52.60
2019-03-28T13:36:05.237Z,52.80
2019-03-28T13:38:33.710Z,53.00
2019-03-28T13:41:02.125Z,53.10
2019-03-28T13:43:30.770Z,53.10
2019-03-28T13:45:59.389Z,53.40
2019-03-28T13:48:27.903Z,53.10
2019-03-28T13:50:56.325Z,52.80
2019-03-28T13:53:38.272Z,53.70
2019-03-28T13:55:55.044Z,52.70
2019-03-28T13:58:23.540Z,53.10
2019-03-28T14:00:54.385Z,53.20
2019-03-28T14:03:22.127Z,53.00
2019-03-28T14:05:50.541Z,52.70
2019-03-28T14:08:18.987Z,52.80
2019-03-28T14:10:47.560Z,52.90
2019-03-28T14:13:16.133Z,52.60
2019-03-28T14:15:44.562Z,52.50
2019-03-28T14:18:13.048Z,52.90
2019-03-28T14:20:41.608Z,53.40
2019-03-28T14:23:10.062Z,53.30
2019-03-28T14:25:38.483Z,53.00
2019-03-28T14:28:06.923Z,52.10
2019-03-28T14:30:35.365Z,52.80
2019-03-28T14:33:11.243Z,52.40
2019-03-28T14:35:34.044Z,52.10
2019-03-28T14:38:02.534Z,51.90
2019-03-28T14:40:31.066Z,51.90
2019-03-28T14:42:59.477Z,52.10
2019-03-28T14:45:27.947Z,52.40
2019-03-28T14:47:56.420Z,52.80
2019-03-28T14:50:38.843Z,53.20
2019-03-28T14:53:07.345Z,52.90
2019-03-28T14:55:35.925Z,53.30
2019-03-28T14:58:05.282Z,53.50
2019-03-28T15:00:47.950Z,53.60
2019-03-28T15:03:25.879Z,54.30
2019-03-28T15:05:47.029Z,54.30
2019-03-28T15:08:15.607Z,54.50
2019-03-28T15:10:44.104Z,54.60
2019-03-28T15:13:12.608Z,54.70
2019-03-28T15:15:41.128Z,54.90
2019-03-28T15:18:09.568Z,55.30
2019-03-28T15:20:38.004Z,55.40
2019-03-28T15:23:06.435Z,55.80
2019-03-28T15:25:34.905Z,56.00
2019-03-28T15:28:03.327Z,56.00
2019-03-28T15:30:31.770Z,56.20
2019-03-28T15:33:00.201Z,56.50
2019-03-28T15:35:28.613Z,56.40
2019-03-28T15:37:57.053Z,56.20
2019-03-28T15:40:25.469Z,56.40
2019-03-28T15:42:53.918Z,56.50
2019-03-28T15:45:22.332Z,56.60
2019-03-28T15:47:52.197Z,56.50
2019-03-28T15:50:20.804Z,56.80
2019-03-28T15:52:49.260Z,57.50
2019-03-28T15:55:17.662Z,56.80
2019-03-28T15:57:46.177Z,56.90
2019-03-28T16:00:15.250Z,56.80
2019-03-28T16:02:44.566Z,57.00
2019-03-28T16:05:13.096Z,57.00
2019-03-28T16:07:41.703Z,57.00
2019-03-28T16:10:14.492Z,56.80
2019-03-28T16:12:41.809Z,57.00
2019-03-28T16:15:10.461Z,57.30
2019-03-28T16:17:38.939Z,57.10
2019-03-28T16:20:07.697Z,56.80
2019-03-28T16:22:36.132Z,56.80
2019-03-28T16:25:06.724Z,57.00
2019-03-28T16:27:35.161Z,57.10
2019-03-28T16:30:06.176Z,57.20
2019-03-28T16:32:34.654Z,57.30
2019-03-28T16:35:03.933Z,57.40
2019-03-28T16:37:32.363Z,57.70
2019-03-28T16:40:00.842Z,58.00
2019-03-28T16:42:29.342Z,58.10
2019-03-28T16:44:57.777Z,58.00
2019-03-28T16:47:26.270Z,57.90
2019-03-28T16:49:54.705Z,58.10
2019-03-28T16:52:23.147Z,58.10
2019-03-28T16:54:51.585Z,58.10
2019-03-28T16:57:20.016Z,58.20
2019-03-28T16:59:48.525Z,58.20
2019-03-28T17:02:17.033Z,58.40
2019-03-28T17:04:45.524Z,58.50
2019-03-28T17:07:14.782Z,58.70
2019-03-28T17:09:43.369Z,58.70
2019-03-28T17:12:11.893Z,58.80
2019-03-28T17:14:40.314Z,58.80
2019-03-28T17:17:08.832Z,59.20
2019-03-28T17:19:37.548Z,59.20
2019-03-28T17:22:09.339Z,59.40
2019-03-28T17:24:36.211Z,59.40
2019-03-28T17:27:04.701Z,59.60
2019-03-28T17:29:33.116Z,59.80
2019-03-28T17:32:01.568Z,59.80
2019-03-28T17:34:35.047Z,59.90
2019-03-28T17:37:00.149Z,60.10
2019-03-28T17:39:28.671Z,60.30
2019-03-28T17:41:57.728Z,60.50
2019-03-28T17:44:26.371Z,60.70
2019-03-28T17:46:54.843Z,60.90
2019-03-28T17:49:23.320Z,61.20
2019-03-28T17:51:51.808Z,61.40
2019-03-28T17:54:20.322Z,61.70
2019-03-28T17:57:08.128Z,62.00
2019-03-28T17:59:36.548Z,61.90
2019-03-28T18:02:05.242Z,62.10
2019-03-28T18:04:47.185Z,62.20
2019-03-28T18:07:03.844Z,62.40
2019-03-28T18:09:32.270Z,62.40
2019-03-28T18:12:00.785Z,62.60
2019-03-28T18:14:29.243Z,62.50
2019-03-28T18:16:57.682Z,62.60
2019-03-28T18:19:26.207Z,62.80
2019-03-28T18:22:03.278Z,62.90
2019-03-28T18:24:24.808Z,63.10
2019-03-28T18:26:53.289Z,63.10
2019-03-28T18:29:21.817Z,63.40
2019-03-28T18:31:52.462Z,63.50
2019-03-28T18:34:20.482Z,63.50
2019-03-28T18:36:48.984Z,64.00
2019-03-28T18:39:17.498Z,64.30
2019-03-28T18:41:46.056Z,64.00
2019-03-28T18:44:16.072Z,63.90
2019-03-28T18:46:44.590Z,63.90
2019-03-28T18:49:13.167Z,64.00
2019-03-28T18:51:41.605Z,64.00
2019-03-28T18:54:10.166Z,64.20
2019-03-28T18:56:38.582Z,64.40
2019-03-28T18:59:07.149Z,64.30
2019-03-28T19:01:35.658Z,64.40
2019-03-28T19:04:04.123Z,64.50
2019-03-28T19:06:32.665Z,64.70
2019-03-28T19:09:01.231Z,64.70
2019-03-28T19:11:29.737Z,64.90
2019-03-28T19:13:58.379Z,65.10
2019-03-28T19:16:26.858Z,65.20
2019-03-28T19:18:55.327Z,65.30
2019-03-28T19:21:23.773Z,65.30
2019-03-28T19:23:52.322Z,65.50
2019-03-28T19:26:20.766Z,65.70
2019-03-28T19:28:49.267Z,65.70
2019-03-28T19:31:17.858Z,65.80
2019-03-28T19:33:46.364Z,66.00
2019-03-28T19:36:15.051Z,66.10
2019-03-28T19:38:43.674Z,66.30
2019-03-28T19:41:12.197Z,66.40
2019-03-28T19:43:41.127Z,66.40
2019-03-28T19:46:09.581Z,66.60
2019-03-28T19:48:38.147Z,66.60
2019-03-28T19:51:07.837Z,67.50
2019-03-28T19:53:36.469Z,66.80
2019-03-28T19:56:04.945Z,66.90
2019-03-28T19:58:35.131Z,66.80
2019-03-28T20:01:03.861Z,67.10
2019-03-28T20:03:32.311Z,67.10
2019-03-28T20:06:00.828Z,67.10
2019-03-28T20:08:29.500Z,67.20
2019-03-28T20:10:58.090Z,67.20
2019-03-28T20:13:26.586Z,67.10
2019-03-28T20:15:55.213Z,67.20
2019-03-28T20:18:23.629Z,67.30
2019-03-28T20:20:55.452Z,67.30
2019-03-28T20:23:22.781Z,67.40
2019-03-28T20:25:51.414Z,67.40
2019-03-28T20:28:19.964Z,67.30
2019-03-28T20:30:48.505Z,67.40
2019-03-28T20:33:17.081Z,67.40
2019-03-28T20:35:45.588Z,67.50
2019-03-28T20:38:14.122Z,67.50
2019-03-28T20:40:43.542Z,67.50
2019-03-28T20:43:12.195Z,67.80
2019-03-28T20:45:40.711Z,68.00
2019-03-28T20:48:09.222Z,68.00
2019-03-28T20:50:37.809Z,68.20
2019-03-28T20:53:06.333Z,68.00
2019-03-28T20:55:34.780Z,67.90
2019-03-28T20:58:03.311Z,67.80
2019-03-28T21:00:38.876Z,68.00
2019-03-28T21:03:07.583Z,68.30
2019-03-28T21:05:36.204Z,68.20
2019-03-28T21:08:04.974Z,68.40
2019-03-28T21:10:33.646Z,68.50
2019-03-28T21:13:02.163Z,68.60
2019-03-28T21:15:30.679Z,68.70
2019-03-28T21:17:59.083Z,68.80
2019-03-28T21:20:27.538Z,69.00
2019-03-28T21:22:56.141Z,69.10
2019-03-28T21:25:24.588Z,69.00
2019-03-28T21:27:53.119Z,69.20
2019-03-28T21:30:21.689Z,69.30
2019-03-28T21:32:55.750Z,69.20
2019-03-28T21:35:20.390Z,69.40
2019-03-28T21:37:48.905Z,69.20
2019-03-28T21:40:17.520Z,69.40
2019-03-28T21:42:46.064Z,69.50
2019-03-28T21:45:15.085Z,69.70
2019-03-28T21:47:43.656Z,70.00
2019-03-28T21:50:12.215Z,70.30
2019-03-28T21:52:40.956Z,70.30
2019-03-28T21:55:11.510Z,70.50
2019-03-28T21:57:42.482Z,70.40
2019-03-28T22:00:10.663Z,70.60
2019-03-28T22:02:39.229Z,70.60
2019-03-28T22:05:07.823Z,70.80
2019-03-28T22:07:36.347Z,70.90
2019-03-28T22:10:08.940Z,70.80
2019-03-28T22:12:37.669Z,70.90
2019-03-28T22:15:07.741Z,71.10
2019-03-28T22:17:36.793Z,71.20
2019-03-28T22:20:06.681Z,71.10
2019-03-28T22:22:35.148Z,71.40
2019-03-28T22:25:04.261Z,71.30
2019-03-28T22:27:32.794Z,71.20
2019-03-28T22:30:01.281Z,71.10
2019-03-28T22:32:29.726Z,71.10
2019-03-28T22:34:58.154Z,71.20
2019-03-28T22:37:26.603Z,71.30
2019-03-28T22:39:55.047Z,71.30
2019-03-28T22:42:23.504Z,71.50
2019-03-28T22:44:51.940Z,71.50
2019-03-28T22:47:20.457Z,71.40
2019-03-28T22:49:48.959Z,71.50
2019-03-28T22:52:17.502Z,71.50
2019-03-28T22:54:45.976Z,71.60
2019-03-28T22:57:15.136Z,71.40
2019-03-28T22:59:44.143Z,71.60
2019-03-28T23:02:12.745Z,71.80
2019-03-28T23:04:41.244Z,71.90
2019-03-28T23:07:11.176Z,71.90
2019-03-28T23:09:39.833Z,72.00
2019-03-28T23:12:08.950Z,72.90
2019-03-28T23:14:38.920Z,72.20
2019-03-28T23:17:07.455Z,72.20
2019-03-28T23:19:36.084Z,72.30
2019-03-28T23:22:04.597Z,72.40
2019-03-28T23:24:33.048Z,72.40
2019-03-28T23:27:01.554Z,72.40
2019-03-28T23:29:29.981Z,72.60
2019-03-28T23:31:58.418Z,72.70
2019-03-28T23:34:26.859Z,72.90
2019-03-28T23:36:55.277Z,72.90
2019-03-28T23:39:23.697Z,73.10
2019-03-28T23:41:52.130Z,73.20
2019-03-28T23:44:23.294Z,73.20
2019-03-28T23:46:51.729Z,73.30
2019-03-28T23:49:20.167Z,73.20
2019-03-28T23:51:48.819Z,73.30
2019-03-28T23:54:17.265Z,73.30
2019-03-28T23:56:45.752Z,73.50
2019-03-28T23:59:14.187Z,73.50
